Time;durP1;ratioP1;P1;durP2;ratioP2;P2;SDS_P1;SDS_P2;PMS_P1;PMS_P2;Temp;Humidity;BMP_temperature;BMP_pressure;BME280_temperature;BME280_humidity;BME280_pressure;Samples;Min_cycle;Max_cycle;Signal;HPM_P1;HPM_P2
2022/05/21 00:02:05;;;;;;;;;5.20;5.00;;;;;23.98;20.76;99519.78;5022135;28;8863;-76
2022/05/21 00:04:34;;;;;;;;;6.60;5.80;;;;;23.99;21.22;99529.50;5039592;28;8862;-77
2022/05/21 00:07:02;;;;;;;;;4.60;4.60;;;;;23.94;21.04;99527.06;5016904;28;8877;-78
2022/05/21 00:09:32;;;;;;;;;6.00;6.00;;;;;23.93;21.32;99532.47;5025025;28;8862;-76
2022/05/21 00:12:01;;;;;;;;;6.80;6.80;;;;;23.88;21.22;99531.91;5028258;28;8911;-77
2022/05/21 00:14:30;;;;;;;;;4.00;4.00;;;;;23.86;21.57;99533.78;4995326;28;8989;-77
2022/05/21 00:16:59;;;;;;;;;3.40;3.40;;;;;23.90;21.29;99527.34;4999277;28;8891;-79
2022/05/21 00:19:28;;;;;;;;;4.80;4.80;;;;;23.90;21.19;99524.69;4998221;28;8880;-78
2022/05/21 00:21:56;;;;;;;;;5.00;4.00;;;;;23.81;21.01;99520.72;4970538;28;8858;-78
2022/05/21 00:24:25;;;;;;;;;4.40;4.20;;;;;23.68;21.34;99522.31;4989930;28;9046;-79
2022/05/21 00:26:55;;;;;;;;;4.20;4.20;;;;;23.75;21.41;99526.34;5001342;28;8873;-77
2022/05/21 00:29:26;;;;;;;;;5.20;5.20;;;;;23.78;21.32;99525.31;4978098;28;8876;-78
2022/05/21 00:31:55;;;;;;;;;6.20;4.20;;;;;23.75;21.40;99519.22;4947616;28;8958;-79
2022/05/21 00:34:24;;;;;;;;;3.80;3.80;;;;;23.77;21.43;99512.97;4961268;28;8868;-79
2022/05/21 00:36:52;;;;;;;;;4.00;4.00;;;;;23.64;21.67;99513.63;4987944;28;8911;-82
2022/05/21 00:39:21;;;;;;;;;5.80;5.00;;;;;23.70;21.85;99509.78;4985452;28;8861;-75
2022/05/21 00:41:50;;;;;;;;;4.60;4.60;;;;;23.78;21.67;99506.69;4972241;28;8868;-74
2022/05/21 00:44:20;;;;;;;;;4.20;4.20;;;;;23.70;21.91;99509.78;4985481;28;8861;-74
2022/05/21 00:46:49;;;;;;;;;4.40;4.40;;;;;23.71;21.64;99499.03;4956488;28;8861;-80
2022/05/21 00:49:21;;;;;;;;;5.20;4.40;;;;;23.75;21.89;99497.06;5023953;28;8854;-79
2022/05/21 00:51:55;;;;;;;;;6.80;5.00;;;;;23.69;22.01;99495.59;4988007;28;9669;-79
2022/05/21 00:54:28;;;;;;;;;4.60;4.40;;;;;23.69;22.29;99489.44;4987425;28;8891;-80
2022/05/21 00:57:02;;;;;;;;;4.40;4.40;;;;;23.61;22.32;99481.88;4971880;28;9024;-80
2022/05/21 00:59:51;;;;;;;;;5.40;5.00;;;;;23.64;22.54;99481.69;4971793;28;8887;-80
2022/05/21 01:02:23;;;;;;;;;4.40;4.40;;;;;23.63;22.76;99481.75;4990154;28;8857;-80
2022/05/21 01:04:56;;;;;;;;;5.80;5.40;;;;;23.59;22.96;99477.56;5004428;28;9002;-80
2022/05/21 01:07:25;;;;;;;;;5.40;5.40;;;;;23.58;22.95;99475.84;4956568;28;8976;-78
2022/05/21 01:09:56;;;;;;;;;4.00;4.00;;;;;23.53;23.14;99479.63;4969170;28;8851;-78
2022/05/21 01:12:29;;;;;;;;;5.20;5.20;;;;;23.59;23.34;99475.78;4952332;28;8858;-78
2022/05/21 01:15:04;;;;;;;;;5.60;5.60;;;;;23.70;23.24;99477.81;4969759;28;8925;-79
2022/05/21 01:17:33;;;;;;;;;5.80;5.40;;;;;23.77;23.12;99473.88;4935624;28;8981;-79
2022/05/21 01:20:07;;;;;;;;;4.80;3.80;;;;;23.64;23.59;99463.03;4967736;28;8859;-77
2022/05/21 01:22:43;;;;;;;;;5.60;5.60;;;;;23.54;23.89;99475.16;4961298;28;8844;-77
2022/05/21 01:25:14;;;;;;;;;4.00;4.00;;;;;23.66;23.43;99461.16;4936006;28;8875;-77
2022/05/21 01:27:44;;;;;;;;;4.20;4.20;;;;;23.66;24.00;99474.47;4967579;28;10352;-76
2022/05/21 01:30:17;;;;;;;;;6.20;6.20;;;;;23.69;24.21;99471.63;4967629;28;8862;-77
2022/05/21 01:32:48;;;;;;;;;8.00;7.00;;;;;23.67;25.53;99473.53;4978496;28;8856;-79
2022/05/21 01:35:18;;;;;;;;;8.00;8.00;;;;;23.69;25.10;99476.97;4987221;28;8841;-78
2022/05/21 01:37:49;;;;;;;;;11.50;10.25;;;;;23.72;25.46;99471.47;4939134;28;8874;-78
2022/05/21 01:40:18;;;;;;;;;8.40;8.40;;;;;23.73;25.46;99473.19;4968219;28;8850;-77
2022/05/21 01:44:37;;;;;;;;;7.40;7.40;;;;;23.71;25.69;99472.41;4967473;28;9624;-77
2022/05/21 01:45:35;;;;;;;;;8.00;8.00;;;;;23.71;25.24;99471.56;4967789;28;8862;-79
2022/05/21 01:48:05;;;;;;;;;6.20;6.20;;;;;23.67;25.04;99472.69;4927871;29;9584;-79
2022/05/21 01:50:36;;;;;;;;;7.80;7.80;;;;;23.63;24.97;99477.31;4866625;29;8890;-78
2022/05/21 01:53:06;;;;;;;;;4.00;4.00;;;;;23.59;25.25;99465.13;4933097;29;8866;-79
2022/05/21 01:55:35;;;;;;;;;7.00;7.00;;;;;23.58;25.44;99467.88;4948025;29;8859;-77
2022/05/21 01:58:03;;;;;;;;;8.60;8.60;;;;;23.52;25.44;99466.41;4962252;28;8868;-78
2022/05/21 02:00:34;;;;;;;;;7.40;7.40;;;;;23.44;26.03;99466.81;4955913;28;8853;-80
2022/05/21 02:03:03;;;;;;;;;9.00;8.00;;;;;23.40;26.35;99467.91;4956482;28;8909;-76
2022/05/21 02:05:32;;;;;;;;;6.80;6.80;;;;;23.32;26.11;99460.34;4972165;28;9599;-79
2022/05/21 02:08:01;;;;;;;;;8.60;8.60;;;;;23.27;26.59;99459.75;4988778;28;8849;-77
2022/05/21 02:10:31;;;;;;;;;6.40;6.00;;;;;23.19;25.50;99461.09;4973032;28;8909;-79
2022/05/21 02:13:01;;;;;;;;;6.40;5.60;;;;;23.11;25.38;99448.22;4989616;28;8852;-78
2022/05/21 02:15:31;;;;;;;;;6.00;6.00;;;;;22.83;25.93;99452.31;4971649;28;8860;-78
2022/05/21 02:18:00;;;;;;;;;7.00;6.80;;;;;22.77;26.47;99442.84;4971841;28;8860;-80
2022/05/21 02:20:28;;;;;;;;;6.20;5.80;;;;;22.70;26.62;99437.94;5008663;28;8880;-80
2022/05/21 02:22:57;;;;;;;;;6.20;5.80;;;;;22.54;26.96;99432.56;4996095;28;8858;-78
2022/05/21 02:25:26;;;;;;;;;6.60;6.00;;;;;22.36;27.32;99434.38;5013904;28;9048;-77
2022/05/21 02:27:56;;;;;;;;;4.80;4.40;;;;;22.32;27.44;99436.31;4999931;28;9754;-75
2022/05/21 02:30:26;;;;;;;;;6.20;6.20;;;;;22.36;27.86;99439.69;5032270;28;8854;-77
2022/05/21 02:32:55;;;;;;;;;5.80;5.00;;;;;22.26;27.55;99433.97;4998091;28;8855;-77
2022/05/21 02:35:24;;;;;;;;;7.00;6.00;;;;;22.28;27.97;99436.56;5011503;28;8851;-77
2022/05/21 02:40:39;;;;;;;;;7.80;7.80;;;;;22.16;28.31;99435.34;4992755;28;8849;-80
2022/05/21 02:43:09;;;;;;;;;6.60;6.00;;;;;22.30;28.26;99437.34;4992880;28;8872;-80
2022/05/21 02:45:37;;;;;;;;;7.20;6.80;;;;;22.22;28.42;99437.69;4992481;28;8892;-78
2022/05/21 02:48:06;;;;;;;;;7.20;7.20;;;;;22.31;28.32;99436.41;4992406;28;8890;-77
2022/05/21 02:50:38;;;;;;;;;7.20;5.80;;;;;22.37;28.32;99434.28;5007257;28;8861;-80
2022/05/21 02:53:09;;;;;;;;;6.80;6.20;;;;;22.48;28.39;99432.91;4941997;28;8884;-79
2022/05/21 02:55:38;;;;;;;;;6.40;6.40;;;;;22.58;28.37;99434.13;5009264;28;8893;-78
2022/05/21 02:58:07;;;;;;;;;5.60;5.60;;;;;22.63;27.91;99442.75;4994889;28;8936;-78
2022/05/21 03:00:37;;;;;;;;;6.40;6.40;;;;;22.68;28.14;99453.97;5014215;28;8928;-78
2022/05/21 03:03:06;;;;;;;;;5.20;4.80;;;;;22.70;27.95;99448.56;4977501;28;8939;-79
2022/05/21 03:05:35;;;;;;;;;6.00;6.00;;;;;22.69;27.61;99455.69;5012216;28;8858;-76
2022/05/21 03:10:20;;;;;;;;;7.40;6.20;;;;;22.73;27.89;99465.22;5011845;28;8945;-80
2022/05/21 03:10:56;;;;;;;;;4.40;4.40;;;;;22.78;27.58;99460.53;4991428;28;8849;-80
2022/05/21 03:13:26;;;;;;;;;7.80;6.20;;;;;22.81;29.46;99467.50;4991771;28;8853;-79
2022/05/21 03:15:57;;;;;;;;;7.60;6.80;;;;;22.84;29.07;99471.81;4994164;28;8876;-78
2022/05/21 03:18:26;;;;;;;;;8.60;7.40;;;;;22.81;29.45;99464.81;4957799;28;8892;-79
2022/05/21 03:20:54;;;;;;;;;10.00;9.80;;;;;22.81;29.15;99472.81;4991785;28;8927;-80
2022/05/21 03:23:23;;;;;;;;;13.00;12.25;;;;;22.82;29.17;99469.22;4990506;28;8853;-78
2022/05/21 03:25:52;;;;;;;;;14.00;11.75;;;;;22.81;28.83;99472.81;4991751;28;8837;-79
2022/05/21 03:28:21;;;;;;;;;17.00;15.75;;;;;22.83;29.37;99475.38;4990559;28;8860;-81
2022/05/21 03:30:51;;;;;;;;;6.40;6.00;;;;;22.84;28.38;99475.31;4990238;28;8991;-79
2022/05/21 03:33:21;;;;;;;;;12.00;8.40;;;;;22.87;29.66;99461.88;4991595;28;9631;-78
2022/05/21 03:35:49;;;;;;;;;5.25;5.25;;;;;22.90;29.61;99471.47;4991804;28;8896;-78
2022/05/21 03:38:19;;;;;;;;;8.40;7.60;;;;;22.91;29.53;99473.19;4992420;28;8873;-78
2022/05/21 03:40:48;;;;;;;;;6.40;4.80;;;;;22.93;29.36;99481.94;4991803;28;8869;-80
2022/05/21 03:43:16;;;;;;;;;8.40;8.00;;;;;22.96;29.34;99482.63;4997527;28;8838;-79
2022/05/21 03:45:45;;;;;;;;;9.20;8.40;;;;;23.01;29.67;99481.56;4992623;28;8862;-78
2022/05/21 03:48:15;;;;;;;;;10.00;9.75;;;;;23.03;29.57;99471.69;5010865;28;8894;-78
2022/05/21 03:50:46;;;;;;;;;9.20;8.80;;;;;23.07;30.08;99478.59;4999680;28;8884;-78
2022/05/21 03:53:16;;;;;;;;;9.40;9.40;;;;;23.10;29.48;99468.66;4991870;28;9664;-78
2022/05/21 03:55:45;;;;;;;;;19.75;18.75;;;;;23.15;29.34;99463.91;5005943;28;8857;-77
2022/05/21 03:58:16;;;;;;;;;28.00;26.75;;;;;23.21;28.86;99464.53;4989617;28;8881;-78
2022/05/21 04:00:44;;;;;;;;;8.60;8.60;;;;;23.26;28.00;99458.03;4973163;28;8980;-80
2022/05/21 04:03:13;;;;;;;;;7.60;7.60;;;;;23.34;27.93;99458.47;4993744;28;8847;-78
2022/05/21 04:05:42;;;;;;;;;7.20;7.00;;;;;23.43;27.90;99462.44;5010217;28;8854;-78
2022/05/21 04:08:12;;;;;;;;;7.20;7.00;;;;;23.53;28.04;99461.00;4993472;28;8846;-79
2022/05/21 04:10:41;;;;;;;;;14.25;14.25;;;;;23.62;27.67;99456.09;5026904;28;8900;-79
2022/05/21 04:13:09;;;;;;;;;18.75;16.75;;;;;23.70;27.68;99460.03;5014595;28;8870;-79
2022/05/21 04:15:38;;;;;;;;;9.40;9.40;;;;;23.78;27.66;99458.75;5022670;28;8993;-77
2022/05/21 04:18:07;;;;;;;;;8.20;8.20;;;;;23.82;27.28;99460.31;5002064;28;8840;-79
2022/05/21 04:20:36;;;;;;;;;7.20;7.00;;;;;23.90;27.49;99464.28;5008295;28;8896;-77
2022/05/21 04:23:04;;;;;;;;;32.50;30.75;;;;;23.97;27.35;99450.59;4992566;28;9002;-79
2022/05/21 04:25:35;;;;;;;;;7.60;7.60;;;;;24.06;27.62;99456.25;4993622;28;8852;-80
2022/05/21 04:28:03;;;;;;;;;6.00;4.80;;;;;24.13;27.62;99457.63;4994558;28;8865;-78
2022/05/21 04:30:33;;;;;;;;;27.75;25.00;;;;;24.18;28.25;99456.47;4976966;28;8900;-78
2022/05/21 04:33:02;;;;;;;;;22.00;19.25;;;;;24.27;27.99;99459.50;5001512;28;8988;-79
2022/05/21 04:38:13;;;;;;;;;10.00;10.00;;;;;24.45;27.86;99460.19;5014850;28;8875;-78
2022/05/21 04:40:44;;;;;;;;;10.00;9.00;;;;;24.51;28.19;99449.19;5001233;28;8978;-79
2022/05/21 04:43:12;;;;;;;;;9.00;9.00;;;;;24.57;28.11;99461.31;5010536;28;9619;-79
2022/05/21 04:45:41;;;;;;;;;9.00;9.00;;;;;24.61;28.51;99448.66;4998333;28;8959;-75
2022/05/21 04:48:10;;;;;;;;;10.00;10.00;;;;;24.67;28.60;99453.63;5009687;28;8878;-81
2022/05/21 04:50:40;;;;;;;;;9.60;9.40;;;;;24.76;28.71;99466.38;5013381;28;8861;-79
2022/05/21 04:53:08;;;;;;;;;10.20;10.20;;;;;24.86;28.72;99466.72;5012470;28;8846;-78
2022/05/21 04:55:37;;;;;;;;;12.20;10.60;;;;;24.95;28.39;99466.13;5007139;28;8854;-79
2022/05/21 04:58:07;;;;;;;;;9.60;9.60;;;;;25.02;28.56;99459.47;5007459;28;8900;-78
2022/05/21 05:00:36;;;;;;;;;9.60;8.80;;;;;25.12;27.83;99459.75;5008350;28;8866;-80
2022/05/21 05:03:11;;;;;;;;;9.00;9.00;;;;;25.22;27.86;99466.25;4974783;28;8854;-79
2022/05/21 05:05:41;;;;;;;;;8.80;8.80;;;;;25.30;27.86;99468.47;5006103;28;8854;-80
2022/05/21 05:08:11;;;;;;;;;10.80;9.60;;;;;25.35;28.16;99461.03;5007425;28;8878;-77
2022/05/21 05:10:40;;;;;;;;;11.20;11.00;;;;;25.40;28.07;99463.41;4988852;28;8900;-79
2022/05/21 05:13:11;;;;;;;;;11.20;9.80;;;;;25.49;28.31;99460.16;4993472;28;8880;-76
2022/05/21 05:15:40;;;;;;;;;7.40;7.40;;;;;25.57;28.44;99454.31;4952504;28;8858;-79
2022/05/21 05:18:10;;;;;;;;;10.40;10.20;;;;;25.64;27.83;99453.81;4997318;28;8996;-78
2022/05/21 05:20:39;;;;;;;;;9.80;8.40;;;;;25.64;28.31;99448.47;4989351;28;8839;-78
2022/05/21 05:23:08;;;;;;;;;9.50;8.25;;;;;25.73;28.60;99460.38;4992183;28;8851;-81
2022/05/21 05:25:39;;;;;;;;;9.00;9.00;;;;;25.83;28.13;99471.34;4990411;28;9044;-80
2022/05/21 05:28:16;;;;;;;;;10.60;10.60;;;;;25.92;27.73;99481.47;4984015;28;9615;-77
2022/05/21 05:30:46;;;;;;;;;10.20;10.20;;;;;25.81;27.68;99499.97;5008752;28;9778;-81
2022/05/21 05:33:15;;;;;;;;;12.00;10.60;;;;;25.92;27.98;99507.28;4989200;28;8876;-78
2022/05/21 05:35:44;;;;;;;;;10.00;8.60;;;;;25.93;27.96;99511.69;5000949;28;9663;-79
2022/05/21 05:38:13;;;;;;;;;8.80;8.80;;;;;25.94;28.14;99511.59;4988885;28;8876;-80
2022/05/21 05:40:46;;;;;;;;;13.50;13.25;;;;;25.76;29.07;99516.28;4989059;28;8860;-78
2022/05/21 05:43:18;;;;;;;;;13.00;13.00;;;;;25.16;30.13;99525.34;4999857;28;8853;-78
2022/05/21 05:45:49;;;;;;;;;11.75;11.25;;;;;24.66;31.14;99523.91;4999508;28;8892;-77
2022/05/21 05:48:19;;;;;;;;;11.20;11.20;;;;;24.26;31.69;99523.53;5001550;28;8846;-78
2022/05/21 05:50:55;;;;;;;;;17.75;17.00;;;;;24.73;31.01;99517.28;4989269;28;9011;-78
2022/05/21 05:53:24;;;;;;;;;10.75;10.75;;;;;24.11;32.06;99527.94;5000671;28;8893;-78
2022/05/21 05:55:52;;;;;;;;;13.00;13.00;;;;;23.96;32.37;99526.16;4987961;28;9617;-78
2022/05/21 06:01:07;;;;;;;;;11.40;11.40;;;;;23.34;34.33;99540.97;4947417;29;8974;-78
2022/05/21 06:03:36;;;;;;;;;11.00;10.00;;;;;23.43;33.69;99544.09;4936840;29;8967;-80
2022/05/21 06:06:06;;;;;;;;;8.80;8.80;;;;;23.38;33.95;99530.16;4930961;29;8860;-77
2022/05/21 06:08:35;;;;;;;;;13.25;13.00;;;;;23.40;33.92;99534.44;4947751;29;9010;-78
2022/05/21 06:11:03;;;;;;;;;10.60;10.60;;;;;23.31;34.29;99545.63;4947552;28;8871;-78
2022/05/21 06:13:34;;;;;;;;;13.25;13.25;;;;;23.01;34.75;99551.56;4962751;28;8933;-78
2022/05/21 06:16:03;;;;;;;;;13.00;11.40;;;;;23.11;34.97;99538.66;4899657;29;8875;-77
2022/05/21 06:18:31;;;;;;;;;12.75;10.00;;;;;23.23;34.56;99546.03;4915710;29;8970;-77
2022/05/21 06:21:01;;;;;;;;;12.00;12.00;;;;;23.41;34.13;99551.31;4947040;29;9767;-76
2022/05/21 06:23:30;;;;;;;;;13.80;11.40;;;;;23.46;34.58;99547.44;4896462;29;9608;-76
2022/05/21 06:26:00;;;;;;;;;12.00;11.25;;;;;23.92;34.12;99536.09;4895602;29;8898;-75
2022/05/21 06:28:29;;;;;;;;;14.75;14.75;;;;;24.13;33.47;99532.22;4890075;29;8914;-79
2022/05/21 06:30:59;;;;;;;;;12.25;11.25;;;;;24.47;32.65;99529.44;4880913;29;8919;-77
2022/05/21 06:33:30;;;;;;;;;13.00;12.00;;;;;24.64;32.21;99526.66;4893175;29;8863;-78
2022/05/21 06:36:05;;;;;;;;;8.50;8.00;;;;;24.62;32.47;99531.22;4893236;29;8886;-76
2022/05/21 06:38:35;;;;;;;;;11.75;10.75;;;;;25.02;31.89;99515.50;4905265;29;8885;-77
2022/05/21 06:41:04;;;;;;;;;13.00;13.00;;;;;25.20;31.31;99491.28;4947348;28;8996;-77
2022/05/21 06:43:33;;;;;;;;;11.00;10.25;;;;;25.52;31.08;99475.09;4925337;28;8867;-78
2022/05/21 06:46:03;;;;;;;;;14.00;13.25;;;;;25.66;31.12;99454.56;4914239;28;8872;-79
2022/05/21 06:48:32;;;;;;;;;19.50;19.50;;;;;25.89;31.05;99462.91;4962817;28;9009;-77
2022/05/21 06:51:05;;;;;;;;;18.00;15.00;;;;;26.04;30.88;99474.44;4966264;28;8966;-76
2022/05/21 06:53:36;;;;;;;;;13.75;12.75;;;;;26.24;30.91;99475.81;4939849;28;8896;-77
2022/05/21 06:56:10;;;;;;;;;16.00;16.00;;;;;25.70;32.02;99481.94;4951480;28;8887;-77
2022/05/21 06:58:39;;;;;;;;;14.00;13.25;;;;;25.93;31.99;99488.50;4951689;28;8873;-74
2022/05/21 07:01:09;;;;;;;;;15.25;14.75;;;;;25.80;32.18;99487.53;4999793;28;8850;-75
2022/05/21 07:03:38;;;;;;;;;14.25;14.25;;;;;26.03;31.86;99486.06;5004869;28;9004;-74
2022/05/21 07:08:52;;;;;;;;;16.25;14.25;;;;;26.38;32.36;99473.06;5011313;28;8884;-75
2022/05/21 07:11:21;;;;;;;;;13.60;12.20;;;;;26.26;32.50;99474.72;4998807;28;8968;-75
2022/05/21 07:13:50;;;;;;;;;9.00;8.25;;;;;26.44;32.03;99471.78;4991748;28;8876;-75
2022/05/21 07:16:20;;;;;;;;;14.75;13.25;;;;;26.49;32.01;99483.03;4991575;28;9019;-74
2022/05/21 07:18:48;;;;;;;;;11.50;11.25;;;;;26.07;32.17;99484.94;4991376;28;8991;-75
2022/05/21 07:21:19;;;;;;;;;12.50;12.00;;;;;26.38;32.42;99488.25;4991289;28;8845;-75
2022/05/21 07:23:48;;;;;;;;;12.75;12.25;;;;;26.57;32.71;99482.50;4991604;28;8946;-78
2022/05/21 07:26:18;;;;;;;;;13.25;13.25;;;;;26.72;32.44;99488.66;4991093;28;8849;-75
2022/05/21 07:28:47;;;;;;;;;11.25;11.25;;;;;26.87;31.99;99490.28;4991687;28;8891;-74
2022/05/21 07:31:16;;;;;;;;;15.00;14.50;;;;;26.99;31.87;99488.56;4991661;28;8856;-74
2022/05/21 07:33:47;;;;;;;;;12.00;11.50;;;;;27.27;31.76;99484.00;4991825;28;9567;-75
2022/05/21 07:36:16;;;;;;;;;14.25;13.00;;;;;27.31;31.16;99475.63;4991368;28;9615;-74
2022/05/21 07:38:44;;;;;;;;;14.00;14.00;;;;;27.10;31.93;99482.47;4991397;28;8861;-75
2022/05/21 07:41:13;;;;;;;;;13.00;12.25;;;;;27.26;31.92;99475.13;4992252;28;8911;-75
2022/05/21 07:43:41;;;;;;;;;15.00;15.00;;;;;27.50;31.93;99467.13;5006550;28;8935;-76
2022/05/21 07:46:10;;;;;;;;;14.50;14.25;;;;;27.31;31.76;99466.75;4991620;28;8841;-74
2022/05/21 07:48:39;;;;;;;;;15.50;14.75;;;;;27.22;31.63;99454.81;4991503;28;8895;-75
2022/05/21 07:51:09;;;;;;;;;15.00;15.00;;;;;27.47;31.81;99456.66;4991689;28;8889;-75
2022/05/21 07:53:40;;;;;;;;;14.50;14.00;;;;;27.71;31.23;99448.66;4991644;28;8856;-74
2022/05/21 07:56:11;;;;;;;;;19.75;18.00;;;;;27.22;32.50;99455.69;4990929;28;8865;-75
2022/05/21 07:58:42;;;;;;;;;17.75;17.50;;;;;27.52;32.17;99457.16;4990095;28;8869;-74
2022/05/21 08:01:12;;;;;;;;;16.25;15.00;;;;;27.18;32.11;99451.53;4997717;28;8951;-73
2022/05/21 08:03:46;;;;;;;;;18.25;17.50;;;;;27.34;32.34;99439.75;4993440;28;8850;-76
2022/05/21 08:06:17;;;;;;;;;16.75;16.00;;;;;27.30;32.93;99443.63;5011268;28;8977;-76
2022/05/21 08:08:48;;;;;;;;;16.50;15.00;;;;;27.41;32.29;99444.56;5010863;28;8854;-75
2022/05/21 08:11:17;;;;;;;;;17.00;16.25;;;;;27.72;32.00;99436.09;5010717;28;8877;-74
2022/05/21 08:13:45;;;;;;;;;20.75;20.25;;;;;27.69;32.44;99436.31;5010808;28;9723;-75
2022/05/21 08:16:14;;;;;;;;;15.25;13.25;;;;;27.36;32.86;99437.81;5001405;28;8871;-76
2022/05/21 08:18:43;;;;;;;;;13.25;12.50;;;;;27.55;32.42;99430.16;4991168;28;8861;-75
2022/05/21 08:21:11;;;;;;;;;15.00;14.50;;;;;27.29;32.79;99429.34;4972079;28;8891;-76
2022/05/21 08:29:13;;;;;;;;;16.50;16.25;;;;;27.94;32.25;99420.19;4988549;28;8881;-74
2022/05/21 08:31:42;;;;;;;;;17.00;15.25;;;;;27.81;32.61;99419.34;4939834;28;8865;-76
2022/05/21 08:34:11;;;;;;;;;18.50;15.25;;;;;28.08;31.88;99429.00;4989509;28;8861;-77
2022/05/21 08:36:39;;;;;;;;;17.25;17.25;;;;;27.83;33.05;99428.13;4989845;28;8865;-76
2022/05/21 08:39:10;;;;;;;;;18.00;16.75;;;;;27.97;32.50;99430.66;4988749;28;8872;-75
2022/05/21 08:41:46;;;;;;;;;17.25;17.25;;;;;27.15;34.24;99433.00;4990878;28;8885;-75
2022/05/21 08:44:24;;;;;;;;;16.75;16.00;;;;;27.55;34.13;99442.69;5005176;28;8938;-78
2022/05/21 08:47:08;;;;;;;;;17.50;16.00;;;;;27.42;33.96;99456.97;4990410;28;10146;-77
2022/05/21 08:49:48;;;;;;;;;24.50;22.00;;;;;26.88;35.75;99464.38;4991360;28;8868;-76
2022/05/21 08:52:22;;;;;;;;;15.25;15.25;;;;;26.22;36.61;99481.25;4974267;28;8875;-75
2022/05/21 08:54:57;;;;;;;;;16.00;15.50;;;;;26.68;36.08;99471.13;4977663;28;8861;-76
2022/05/21 08:57:33;;;;;;;;;16.75;15.75;;;;;26.09;38.19;99485.69;4971508;28;8902;-77
2022/05/21 09:00:07;;;;;;;;;23.75;21.25;;;;;25.95;38.48;99491.06;4987700;28;9005;-75
2022/05/21 09:02:37;;;;;;;;;19.00;19.00;;;;;26.02;39.25;99482.56;4972096;28;8980;-76
2022/05/21 09:05:09;;;;;;;;;20.25;19.25;;;;;25.70;40.50;99491.78;4988004;28;8864;-75
2022/05/21 09:07:48;;;;;;;;;20.00;19.25;;;;;25.53;40.85;99491.03;4987998;28;8877;-74
2022/05/21 09:10:33;;;;;;;;;19.75;18.75;;;;;25.57;40.15;99497.03;5004316;28;8837;-75
2022/05/21 09:13:09;;;;;;;;;14.75;14.25;;;;;25.90;39.39;99477.13;4970898;28;8983;-74
2022/05/21 09:18:26;;;;;;;;;24.25;24.00;;;;;26.24;39.90;99471.31;4990328;28;8881;-77
2022/05/21 09:20:59;;;;;;;;;17.75;17.25;;;;;26.67;39.53;99477.41;4989410;28;8845;-78
2022/05/21 09:23:47;;;;;;;;;16.75;16.75;;;;;26.31;40.29;99479.75;4990682;28;8856;-77
2022/05/21 09:26:19;;;;;;;;;25.50;23.00;;;;;25.90;41.99;99466.44;4941593;28;8829;-77
2022/05/21 09:28:48;;;;;;;;;20.75;19.50;;;;;25.87;40.16;99473.69;4968220;28;8993;-74
2022/05/21 09:31:29;;;;;;;;;16.00;16.00;;;;;25.63;41.25;99468.16;4984465;28;8839;-74
2022/05/21 09:34:13;;;;;;;;;16.50;16.50;;;;;25.80;41.00;99468.84;4969622;28;8901;-73
2022/05/21 09:36:42;;;;;;;;;15.25;15.25;;;;;26.24;40.10;99473.97;4953560;28;8866;-75
2022/05/21 09:39:30;;;;;;;;;18.00;17.25;;;;;26.10;41.33;99482.03;4949941;28;8871;-74
2022/05/21 09:45:22;;;;;;;;;16.75;15.50;;;;;26.09;41.04;99490.16;4934914;28;8864;-74
2022/05/21 09:45:23;;;;;;;;;24.33;23.67;;;;;26.17;41.27;99471.81;4963367;28;8856;-75
2022/05/21 09:47:54;;;;;;;;;18.00;18.00;;;;;26.55;40.85;99463.03;4968435;28;8876;-76
2022/05/21 09:50:25;;;;;;;;;17.50;17.50;;;;;26.75;40.69;99459.88;4967481;28;8892;-76
2022/05/21 09:52:54;;;;;;;;;18.50;17.25;;;;;26.61;40.35;99482.22;4951568;28;9042;-75
2022/05/21 09:55:25;;;;;;;;;8.00;7.75;;;;;26.22;41.15;99478.56;4967238;28;8895;-75
2022/05/21 09:58:11;;;;;;;;;24.50;22.00;;;;;26.26;42.29;99473.88;4950747;28;9087;-77
2022/05/21 10:00:39;;;;;;;;;18.00;17.50;;;;;26.49;41.55;99466.13;4981698;28;8915;-77
2022/05/21 10:03:11;;;;;;;;;18.67;18.67;;;;;26.58;41.98;99461.00;4970044;28;9719;-75
2022/05/21 10:05:50;;;;;;;;;21.25;20.50;;;;;26.82;41.39;99463.84;4986055;28;8882;-76
2022/05/21 10:11:24;;;;;;;;;17.25;15.50;;;;;26.78;40.40;99453.47;4989355;28;8971;-73
2022/05/21 10:14:01;;;;;;;;;19.50;19.50;;;;;26.60;39.26;99445.75;5018702;28;8869;-76
2022/05/21 10:16:37;;;;;;;;;19.25;19.25;;;;;26.67;39.65;99434.63;5005848;28;8870;-74
2022/05/21 10:19:14;;;;;;;;;18.50;17.00;;;;;26.75;40.22;99433.13;5006562;28;8882;-76
2022/05/21 10:22:01;;;;;;;;;24.00;22.50;;;;;26.98;40.51;99423.47;5009382;28;8873;-74
2022/05/21 10:24:42;;;;;;;;;23.25;22.25;;;;;27.28;38.26;99421.44;5009599;28;8928;-74
2022/05/21 10:27:21;;;;;;;;;22.25;21.00;;;;;27.05;38.16;99413.19;5008702;28;8850;-75
2022/05/21 10:30:07;;;;;;;;;21.75;20.25;;;;;27.34;38.69;99421.00;5009129;28;8874;-75
2022/05/21 10:33:04;;;;;;;;;22.75;21.75;;;;;27.35;38.63;99418.22;4992891;28;8874;-74
2022/05/21 10:35:50;;;;;;;;;21.00;20.25;;;;;27.18;39.39;99419.41;5001134;28;8869;-74
2022/05/21 10:38:43;;;;;;;;;19.00;19.00;;;;;27.54;38.79;99409.72;4990370;28;8892;-77
2022/05/21 10:41:20;;;;;;;;;20.50;19.25;;;;;27.89;38.18;99397.38;4992155;28;8857;-73
2022/05/21 10:44:10;;;;;;;;;19.00;19.00;;;;;27.98;37.62;99397.53;4992269;28;8995;-75
2022/05/21 10:46:52;;;;;;;;;19.25;17.25;;;;;28.39;36.79;99396.22;4992259;28;8904;-73
2022/05/21 10:49:44;;;;;;;;;20.25;20.00;;;;;28.47;36.61;99392.94;4992209;28;8881;-74
2022/05/21 10:52:16;;;;;;;;;23.75;22.75;;;;;28.88;36.62;99406.78;4992358;28;8844;-74
2022/05/21 10:55:01;;;;;;;;;19.50;19.50;;;;;28.39;36.73;99412.31;4992642;28;8865;-76
2022/05/21 10:57:44;;;;;;;;;44.50;38.00;;;;;28.41;36.57;99405.94;5006194;28;8971;-76
2022/05/21 11:00:26;;;;;;;;;21.00;19.50;;;;;28.82;35.82;99420.69;4991460;28;8888;-74
2022/05/21 11:03:16;;;;;;;;;22.50;20.00;;;;;29.11;35.69;99413.88;5006353;28;8837;-74
2022/05/21 11:06:06;;;;;;;;;21.00;19.25;;;;;28.93;35.55;99404.59;4990919;28;8860;-75
2022/05/21 11:08:41;;;;;;;;;21.25;20.00;;;;;28.95;35.76;99391.91;4991540;28;8956;-75
2022/05/21 11:11:29;;;;;;;;;24.00;23.00;;;;;29.09;36.04;99391.66;4989814;28;8876;-75
2022/05/21 11:14:03;;;;;;;;;23.50;22.00;;;;;29.48;35.18;99377.84;4958049;28;8849;-73
2022/05/21 11:16:41;;;;;;;;;20.25;20.00;;;;;29.58;34.60;99383.31;4989689;28;8869;-76
2022/05/21 11:19:19;;;;;;;;;21.00;20.00;;;;;29.84;34.79;99386.56;4991158;28;8872;-74
2022/05/21 11:21:53;;;;;;;;;19.50;19.00;;;;;30.20;34.46;99385.28;4991221;28;8931;-73
2022/05/21 11:24:30;;;;;;;;;26.00;25.75;;;;;30.20;34.71;99384.44;4957541;28;8853;-73
2022/05/21 11:27:03;;;;;;;;;17.75;16.25;;;;;30.23;33.55;99376.97;4972743;28;8888;-74
2022/05/21 11:29:41;;;;;;;;;18.25;18.25;;;;;30.64;33.24;99367.19;4990850;28;8869;-75
2022/05/21 11:38:01;;;;;;;;;23.25;20.25;;;;;30.30;33.43;99372.78;4990886;28;8861;-75
2022/05/21 11:40:52;;;;;;;;;20.75;20.75;;;;;29.86;35.68;99361.25;4990815;28;8971;-74
2022/05/21 11:46:57;;;;;;;;;21.75;21.75;;;;;29.64;36.11;99374.72;4933025;28;8880;-75
2022/05/21 11:49:37;;;;;;;;;22.00;22.00;;;;;29.71;35.96;99371.41;4933755;28;8853;-74
2022/05/21 11:52:43;;;;;;;;;24.00;23.50;;;;;29.20;36.73;99377.38;4933778;28;8856;-74
2022/05/21 11:55:18;;;;;;;;;22.50;22.50;;;;;29.30;36.54;99367.63;4949620;28;8952;-74
2022/05/21 11:57:52;;;;;;;;;22.25;20.75;;;;;29.34;36.49;99357.50;4950018;28;8885;-75
2022/05/21 12:00:46;;;;;;;;;21.25;20.75;;;;;29.21;37.40;99372.91;4949875;28;8899;-76
2022/05/21 12:03:19;;;;;;;;;21.75;21.75;;;;;29.33;37.31;99356.59;4877037;29;8890;-74
2022/05/21 12:06:14;;;;;;;;;24.75;22.50;;;;;29.49;37.24;99366.09;4893305;29;8977;-74
2022/05/21 12:08:49;;;;;;;;;21.00;19.00;;;;;29.39;37.81;99367.84;4877605;29;10386;-74
2022/05/21 12:11:41;;;;;;;;;23.50;21.75;;;;;29.96;36.59;99357.78;4873757;29;9019;-75
2022/05/21 12:14:28;;;;;;;;;20.75;19.00;;;;;29.37;37.74;99362.59;4873697;29;8952;-74
2022/05/21 12:17:02;;;;;;;;;22.50;22.50;;;;;29.20;37.88;99358.59;4840650;29;8893;-74
2022/05/21 12:20:07;;;;;;;;;21.25;21.25;;;;;28.90;38.45;99362.75;4869874;29;8919;-76
2022/05/21 12:22:48;;;;;;;;;19.00;19.00;;;;;28.58;38.74;99358.09;4857724;29;8956;-75
2022/05/21 12:25:54;;;;;;;;;23.00;21.25;;;;;28.14;39.84;99365.03;4861029;29;9604;-75
2022/05/21 12:28:32;;;;;;;;;23.00;21.75;;;;;28.15;40.34;99363.22;4835800;29;8906;-75
2022/05/21 12:31:04;;;;;;;;;20.25;20.25;;;;;28.28;39.85;99364.00;4836130;29;9686;-75